Saint Peter, Minnesota
Current Conditions -  °F | °C
As of 12:35 AM on Wednesday 26 Nov 2014 (Local Time) from KMKT Reporting Station
Overcast Overcast  
Wind Chill: 13°   Ceiling: 5500
Heat Index: 25°   Visibility: 10mi
Dew Point: 16°   Wind: 13mph
Humidity: 69%   Direction: 130°SE
Pressure: 29.96"   Gusts: NA
Location:  44.32°N, 93.96°W
Report Text: KMKT 260635Z AUTO 13011KT 10SM SCT032 BKN055 OVC120 M04/M09 A2996 RMK AO1
Loading
Personal Weather Stations






























Interactive Weather Map New forecast layout! Learn more

10-Day Weather Forecast

Advertisements
Track Severe Weather on mobile